createdAt,value
2023-04-30T00:01:19.396Z,20.37
2023-04-30T00:03:46.174Z,20.35
2023-04-30T00:06:12.908Z,20.35
2023-04-30T00:08:39.812Z,20.34
2023-04-30T00:11:06.463Z,20.32
2023-04-30T00:13:33.112Z,20.31
2023-04-30T00:15:59.794Z,20.31
2023-04-30T00:18:26.446Z,20.28
2023-04-30T00:20:53.303Z,20.30
2023-04-30T00:23:19.939Z,20.27
2023-04-30T00:25:46.593Z,20.27
2023-04-30T00:28:13.274Z,20.27
2023-04-30T00:30:40.129Z,20.24
2023-04-30T00:33:06.855Z,20.21
2023-04-30T00:35:33.549Z,20.21
2023-04-30T00:38:00.398Z,20.20
2023-04-30T00:40:27.263Z,20.17
2023-04-30T00:42:54.154Z,20.16
2023-04-30T00:45:20.812Z,20.14
2023-04-30T00:47:47.510Z,20.14
2023-04-30T00:50:14.395Z,20.13
2023-04-30T00:52:41.034Z,20.10
2023-04-30T00:55:07.671Z,20.10
2023-04-30T00:57:34.318Z,20.04
2023-04-30T01:00:00.962Z,20.06
2023-04-30T01:02:27.701Z,20.04
2023-04-30T01:04:54.383Z,20.06
2023-04-30T01:07:21.051Z,20.03
2023-04-30T01:09:47.727Z,20.00
2023-04-30T01:12:14.627Z,20.00
2023-04-30T01:14:41.294Z,19.97
2023-04-30T01:17:07.951Z,19.96
2023-04-30T01:19:34.620Z,19.96
2023-04-30T01:22:01.283Z,19.93
2023-04-30T01:24:27.935Z,19.91
2023-04-30T01:26:54.816Z,19.90
2023-04-30T01:29:21.476Z,19.89
2023-04-30T01:31:48.246Z,19.89
2023-04-30T01:34:14.994Z,19.86
2023-04-30T01:36:41.670Z,19.84
2023-04-30T01:39:08.299Z,19.83
2023-04-30T01:41:34.992Z,19.81
2023-04-30T01:44:01.661Z,19.80
2023-04-30T01:46:28.393Z,19.80
2023-04-30T01:48:55.080Z,19.80
2023-04-30T01:51:21.762Z,19.79
2023-04-30T01:53:48.434Z,19.76
2023-04-30T01:56:15.125Z,19.74
2023-04-30T01:58:41.774Z,19.73
2023-04-30T02:01:08.695Z,19.72
2023-04-30T02:03:35.472Z,19.70
2023-04-30T02:06:02.244Z,19.69
2023-04-30T02:08:29.115Z,19.70
2023-04-30T02:10:55.799Z,19.69
2023-04-30T02:13:22.458Z,19.67
2023-04-30T02:15:49.147Z,19.65
2023-04-30T02:18:15.873Z,19.66
2023-04-30T02:20:42.595Z,19.62
2023-04-30T02:23:09.264Z,19.62
2023-04-30T02:25:35.930Z,19.59
2023-04-30T02:28:02.574Z,19.58
2023-04-30T02:30:29.245Z,19.56
2023-04-30T02:32:55.983Z,19.59
2023-04-30T02:35:22.668Z,19.56
2023-04-30T02:37:49.354Z,19.53
2023-04-30T02:40:16.004Z,19.53
2023-04-30T02:42:42.883Z,19.53
2023-04-30T02:45:09.555Z,19.50
2023-04-30T02:47:36.442Z,19.49
2023-04-30T02:50:03.098Z,19.46
2023-04-30T02:52:29.766Z,19.45
2023-04-30T02:54:56.441Z,19.48
2023-04-30T02:57:23.311Z,19.43
2023-04-30T02:59:50.174Z,19.43
2023-04-30T03:02:16.831Z,19.42
2023-04-30T03:04:43.559Z,19.39
2023-04-30T03:07:10.453Z,19.40
2023-04-30T03:09:37.184Z,19.35
2023-04-30T03:12:03.876Z,19.38
2023-04-30T03:14:30.748Z,19.35
2023-04-30T03:16:57.606Z,19.33
2023-04-30T03:19:24.249Z,19.33
2023-04-30T03:21:51.106Z,19.33
2023-04-30T03:24:17.763Z,19.32
2023-04-30T03:26:44.463Z,19.28
2023-04-30T03:29:11.320Z,19.31
2023-04-30T03:31:38.009Z,19.29
2023-04-30T03:34:04.902Z,19.29
2023-04-30T03:36:31.561Z,19.23
2023-04-30T03:38:58.216Z,19.23
2023-04-30T03:41:25.084Z,19.22
2023-04-30T03:43:51.751Z,19.23
2023-04-30T03:46:18.485Z,19.19
2023-04-30T03:48:45.191Z,19.19
2023-04-30T03:51:11.843Z,19.19
2023-04-30T03:53:38.537Z,19.09
2023-04-30T03:56:05.206Z,19.08
2023-04-30T03:58:31.880Z,19.08
2023-04-30T04:00:58.551Z,19.05
2023-04-30T04:03:25.201Z,19.04
2023-04-30T04:05:51.850Z,19.02
2023-04-30T04:08:18.500Z,18.98
2023-04-30T04:10:45.163Z,19.01
2023-04-30T04:13:12.035Z,19.01
2023-04-30T04:15:38.999Z,18.97
2023-04-30T04:18:05.741Z,18.97
2023-04-30T04:20:32.523Z,18.94
2023-04-30T04:22:59.392Z,18.91
2023-04-30T04:25:26.050Z,18.92
2023-04-30T04:27:52.804Z,18.91
2023-04-30T04:30:19.454Z,18.91
2023-04-30T04:32:46.137Z,18.90
2023-04-30T04:35:12.840Z,18.87
2023-04-30T04:37:39.512Z,18.85
2023-04-30T04:40:06.180Z,18.80
2023-04-30T04:42:32.839Z,18.83
2023-04-30T04:44:59.727Z,18.78
2023-04-30T04:47:26.394Z,18.80
2023-04-30T04:49:53.541Z,18.78
2023-04-30T04:52:20.394Z,18.77
2023-04-30T04:54:47.048Z,18.72
2023-04-30T04:57:13.727Z,18.75
2023-04-30T04:59:40.368Z,18.74
2023-04-30T05:02:07.105Z,18.71
2023-04-30T05:04:33.821Z,18.68
2023-04-30T05:07:00.488Z,18.71
2023-04-30T05:09:27.178Z,18.68
2023-04-30T05:11:53.843Z,18.65
2023-04-30T05:14:20.709Z,18.65
2023-04-30T05:16:47.450Z,18.65
2023-04-30T05:19:14.115Z,18.64
2023-04-30T05:21:41.018Z,18.63
2023-04-30T05:24:07.681Z,18.60
2023-04-30T05:26:34.359Z,18.61
2023-04-30T05:29:01.029Z,18.56
2023-04-30T05:31:27.743Z,18.57
2023-04-30T05:33:54.634Z,18.54
2023-04-30T05:36:21.292Z,18.54
2023-04-30T05:38:48.166Z,18.53
2023-04-30T05:41:15.038Z,18.54
2023-04-30T05:43:41.710Z,18.51
2023-04-30T05:46:08.673Z,18.49
2023-04-30T05:48:35.371Z,18.50
2023-04-30T05:51:02.251Z,18.47
2023-04-30T05:53:28.911Z,18.49
2023-04-30T05:55:55.638Z,18.46
2023-04-30T05:58:22.318Z,18.44
2023-04-30T06:00:49.169Z,18.43
2023-04-30T06:03:15.858Z,18.43
2023-04-30T06:05:42.847Z,18.40
2023-04-30T06:08:09.804Z,18.32
2023-04-30T06:10:36.485Z,18.26
2023-04-30T06:13:03.337Z,18.22
2023-04-30T06:15:29.976Z,18.22
2023-04-30T06:17:56.856Z,18.17
2023-04-30T06:20:23.530Z,18.17
2023-04-30T06:22:50.198Z,18.16
2023-04-30T06:25:16.863Z,18.12
2023-04-30T06:27:43.554Z,17.89
2023-04-30T06:30:10.434Z,17.79
2023-04-30T06:32:37.104Z,17.90
2023-04-30T06:35:04.396Z,17.96
2023-04-30T06:37:32.439Z,18.03
2023-04-30T06:40:00.102Z,18.03
2023-04-30T06:42:27.421Z,18.03
2023-04-30T06:44:54.230Z,18.02
2023-04-30T06:47:20.930Z,18.02
2023-04-30T06:49:47.599Z,18.03
2023-04-30T06:52:14.248Z,18.03
2023-04-30T06:54:40.915Z,17.98
2023-04-30T06:57:07.577Z,18.08
2023-04-30T06:59:34.248Z,18.09
2023-04-30T07:02:01.250Z,18.08
2023-04-30T07:04:27.951Z,18.09
2023-04-30T07:06:54.621Z,18.06
2023-04-30T07:09:21.267Z,18.05
2023-04-30T07:11:47.941Z,18.06
2023-04-30T07:14:14.618Z,18.03
2023-04-30T07:16:41.277Z,18.06
2023-04-30T07:19:07.933Z,18.05
2023-04-30T07:21:34.592Z,18.08
2023-04-30T07:24:01.249Z,18.06
2023-04-30T07:26:27.918Z,18.06
2023-04-30T07:28:54.601Z,18.08
2023-04-30T07:31:21.313Z,18.06
2023-04-30T07:33:48.237Z,18.05
2023-04-30T07:36:14.884Z,18.02
2023-04-30T07:38:41.752Z,18.03
2023-04-30T07:41:08.414Z,18.05
2023-04-30T07:43:35.068Z,18.06
2023-04-30T07:46:01.741Z,18.08
2023-04-30T07:48:28.609Z,18.08
2023-04-30T07:50:55.494Z,18.06
2023-04-30T07:53:22.388Z,17.98
2023-04-30T07:55:49.271Z,18.00
2023-04-30T07:58:16.695Z,18.03
2023-04-30T08:00:43.350Z,18.05
2023-04-30T08:03:10.052Z,18.02
2023-04-30T08:05:36.716Z,18.00
2023-04-30T08:08:03.364Z,18.02
2023-04-30T08:10:30.089Z,17.99
2023-04-30T08:12:56.948Z,18.00
2023-04-30T08:15:24.725Z,18.02
2023-04-30T08:17:51.643Z,18.00
2023-04-30T08:20:18.372Z,18.05
2023-04-30T08:22:45.419Z,18.03
2023-04-30T08:25:12.101Z,18.02
2023-04-30T08:27:38.785Z,18.02
2023-04-30T08:30:05.433Z,18.06
2023-04-30T08:32:32.130Z,18.03
2023-04-30T08:35:01.413Z,18.02
2023-04-30T08:37:28.065Z,18.03
2023-04-30T08:39:54.987Z,17.98
2023-04-30T08:42:21.806Z,17.99
2023-04-30T08:44:48.786Z,17.96
2023-04-30T08:47:15.660Z,17.98
2023-04-30T08:49:42.313Z,17.96
2023-04-30T08:52:09.079Z,17.92
2023-04-30T08:54:35.758Z,17.95
2023-04-30T08:57:02.650Z,17.92
2023-04-30T08:59:29.326Z,17.92
2023-04-30T09:01:56.078Z,17.92
2023-04-30T09:04:22.784Z,17.92
2023-04-30T09:06:49.492Z,17.89
2023-04-30T09:09:16.209Z,17.90
2023-04-30T09:11:43.174Z,17.90
2023-04-30T09:14:09.917Z,17.92
2023-04-30T09:16:36.694Z,17.90
2023-04-30T09:19:03.374Z,17.92
2023-04-30T09:21:30.041Z,17.92
2023-04-30T09:23:56.715Z,17.92
2023-04-30T09:26:23.371Z,17.89
2023-04-30T09:28:50.021Z,17.88
2023-04-30T09:31:16.716Z,17.90
2023-04-30T09:33:43.362Z,17.88
2023-04-30T09:36:10.021Z,17.88
2023-04-30T09:38:36.691Z,17.88
2023-04-30T09:41:03.341Z,17.85
2023-04-30T09:43:30.119Z,17.82
2023-04-30T09:45:56.855Z,17.81
2023-04-30T09:48:23.601Z,17.82
2023-04-30T09:50:51.181Z,17.82
2023-04-30T09:53:17.938Z,17.82
2023-04-30T09:55:44.885Z,17.79
2023-04-30T09:58:11.547Z,17.79
2023-04-30T10:00:40.883Z,17.79
2023-04-30T10:03:07.842Z,17.81
2023-04-30T10:05:34.535Z,17.78
2023-04-30T10:08:01.197Z,17.78
2023-04-30T10:10:27.866Z,17.78
2023-04-30T10:12:55.070Z,17.75
2023-04-30T10:15:21.953Z,17.72
2023-04-30T10:17:48.624Z,17.72
2023-04-30T10:20:15.285Z,17.74
2023-04-30T10:22:41.951Z,17.74
2023-04-30T10:25:08.616Z,17.71
2023-04-30T10:27:35.300Z,17.72
2023-04-30T10:30:03.727Z,17.71
2023-04-30T10:32:30.722Z,17.71
2023-04-30T10:34:57.583Z,17.71
2023-04-30T10:37:24.241Z,17.69
2023-04-30T10:39:51.112Z,17.69
2023-04-30T10:42:17.963Z,17.68
2023-04-30T10:44:44.644Z,17.69
2023-04-30T10:47:11.322Z,17.69
2023-04-30T10:49:37.962Z,17.71
2023-04-30T10:52:04.616Z,17.68
2023-04-30T10:54:31.286Z,17.68
2023-04-30T10:56:58.186Z,17.67
2023-04-30T10:59:24.841Z,17.67
2023-04-30T11:01:51.654Z,17.64
2023-04-30T11:04:18.440Z,17.62
2023-04-30T11:06:45.282Z,17.62
2023-04-30T11:09:11.997Z,17.62
2023-04-30T11:11:38.657Z,17.62
2023-04-30T11:14:05.339Z,17.61
2023-04-30T11:16:32.164Z,17.62
2023-04-30T11:18:58.988Z,17.61
2023-04-30T11:21:25.652Z,17.61
2023-04-30T11:23:52.289Z,17.61
2023-04-30T11:26:18.937Z,17.61
2023-04-30T11:28:45.644Z,17.59
2023-04-30T11:31:13.634Z,17.58
2023-04-30T11:33:41.770Z,17.58
2023-04-30T11:36:08.448Z,17.58
2023-04-30T11:38:35.151Z,17.58
2023-04-30T11:41:01.815Z,17.57
2023-04-30T11:43:28.687Z,17.57
2023-04-30T11:45:55.334Z,17.57
2023-04-30T11:48:22.353Z,17.55
2023-04-30T11:50:49.004Z,17.54
2023-04-30T11:53:15.652Z,17.54
2023-04-30T11:55:42.324Z,17.55
2023-04-30T11:58:09.000Z,17.54
2023-04-30T12:00:35.871Z,17.54
2023-04-30T12:03:02.631Z,17.54
2023-04-30T12:05:29.436Z,17.55
2023-04-30T12:07:56.090Z,17.49
2023-04-30T12:10:22.718Z,17.52
2023-04-30T12:12:51.215Z,17.55
2023-04-30T12:15:19.247Z,17.52
2023-04-30T12:17:45.931Z,17.52
2023-04-30T12:20:12.642Z,17.51
2023-04-30T12:22:39.302Z,17.49
2023-04-30T12:25:05.968Z,17.52
2023-04-30T12:27:32.610Z,17.51
2023-04-30T12:29:59.296Z,17.51
2023-04-30T12:32:26.111Z,17.52
2023-04-30T12:34:52.870Z,17.49
2023-04-30T12:37:19.744Z,17.49
2023-04-30T12:39:46.606Z,17.48
2023-04-30T12:42:13.258Z,17.48
2023-04-30T12:44:39.921Z,17.48
2023-04-30T12:47:06.595Z,17.48
2023-04-30T12:49:33.260Z,17.48
2023-04-30T12:52:00.153Z,17.49
2023-04-30T12:54:26.850Z,17.49
2023-04-30T12:56:53.735Z,17.48
2023-04-30T12:59:22.791Z,17.45
2023-04-30T13:01:49.492Z,17.47
2023-04-30T13:04:16.394Z,17.49
2023-04-30T13:06:43.188Z,17.49
2023-04-30T13:09:10.128Z,17.49
2023-04-30T13:11:36.782Z,17.51
2023-04-30T13:14:03.457Z,17.49
2023-04-30T13:16:30.230Z,17.51
2023-04-30T13:18:56.926Z,17.49
2023-04-30T13:21:23.608Z,17.51
2023-04-30T13:23:53.631Z,17.54
2023-04-30T13:26:21.468Z,17.51
2023-04-30T13:28:48.143Z,17.52
2023-04-30T13:31:15.085Z,17.49
2023-04-30T13:33:41.789Z,17.49
2023-04-30T13:36:08.981Z,17.51
2023-04-30T13:38:35.683Z,17.49
2023-04-30T13:41:02.610Z,17.48
2023-04-30T13:43:29.502Z,17.48
2023-04-30T13:45:56.368Z,17.47
2023-04-30T13:48:23.004Z,17.45
2023-04-30T13:50:49.652Z,17.45
2023-04-30T13:53:16.306Z,17.45
2023-04-30T13:55:42.997Z,17.42
2023-04-30T13:58:09.847Z,17.42
2023-04-30T14:00:36.540Z,17.39
2023-04-30T14:03:05.102Z,17.41
2023-04-30T14:05:33.893Z,17.39
2023-04-30T14:08:00.559Z,17.39
2023-04-30T14:10:27.199Z,17.39
2023-04-30T14:12:54.865Z,17.37
2023-04-30T14:15:21.535Z,17.38
2023-04-30T14:17:48.189Z,17.37
2023-04-30T14:20:15.136Z,17.37
2023-04-30T14:22:41.810Z,17.38
2023-04-30T14:25:08.436Z,17.35
2023-04-30T14:27:35.080Z,17.35
2023-04-30T14:30:01.725Z,17.32
2023-04-30T14:32:28.392Z,17.35
2023-04-30T14:34:55.065Z,17.38
2023-04-30T14:37:21.744Z,17.18
2023-04-30T14:39:48.380Z,16.93
2023-04-30T14:42:15.032Z,17.04
2023-04-30T14:44:41.769Z,17.11
2023-04-30T14:47:08.666Z,17.17
2023-04-30T14:49:35.307Z,17.02
2023-04-30T14:52:01.954Z,16.81
2023-04-30T14:54:28.817Z,16.94
2023-04-30T14:56:55.488Z,17.02
2023-04-30T14:59:22.157Z,17.08
2023-04-30T15:01:48.895Z,17.13
2023-04-30T15:04:15.695Z,17.14
2023-04-30T15:06:42.473Z,17.17
2023-04-30T15:09:09.173Z,17.18
2023-04-30T15:11:36.060Z,17.21
2023-04-30T15:14:02.763Z,17.20
2023-04-30T15:16:29.815Z,17.23
2023-04-30T15:18:56.600Z,17.21
2023-04-30T15:21:24.128Z,17.24
2023-04-30T15:23:50.799Z,17.23
2023-04-30T15:26:17.470Z,17.21
2023-04-30T15:28:45.236Z,17.20
2023-04-30T15:31:11.921Z,17.17
2023-04-30T15:33:38.996Z,17.21
2023-04-30T15:36:05.692Z,17.24
2023-04-30T15:38:32.380Z,17.28
2023-04-30T15:40:59.033Z,17.27
2023-04-30T15:43:25.688Z,17.31
2023-04-30T15:45:52.586Z,17.28
2023-04-30T15:48:19.482Z,17.31
2023-04-30T15:50:46.335Z,17.31
2023-04-30T15:53:14.097Z,17.32
2023-04-30T15:55:40.780Z,17.30
2023-04-30T15:58:07.443Z,17.27
2023-04-30T16:00:34.080Z,17.32
2023-04-30T16:03:00.836Z,17.30
2023-04-30T16:05:27.588Z,17.31
2023-04-30T16:07:54.237Z,17.31
2023-04-30T16:10:20.903Z,17.34
2023-04-30T16:12:48.595Z,17.32
2023-04-30T16:15:15.467Z,17.31
2023-04-30T16:17:42.244Z,17.32
2023-04-30T16:20:08.946Z,17.32
2023-04-30T16:22:35.630Z,17.31
2023-04-30T16:25:02.430Z,17.34
2023-04-30T16:27:29.106Z,17.28
2023-04-30T16:29:56.280Z,17.30
2023-04-30T16:32:23.326Z,17.34
2023-04-30T16:34:50.000Z,17.34
2023-04-30T16:37:16.667Z,17.35
2023-04-30T16:39:43.299Z,17.32
2023-04-30T16:42:09.953Z,17.34
2023-04-30T16:44:36.817Z,17.34
2023-04-30T16:47:03.478Z,17.32
2023-04-30T16:49:30.341Z,17.30
2023-04-30T16:51:57.032Z,17.31
2023-04-30T16:54:24.159Z,17.28
2023-04-30T16:56:51.041Z,17.28
2023-04-30T16:59:17.690Z,17.26
2023-04-30T17:01:44.413Z,17.27
2023-04-30T17:04:11.868Z,17.26
2023-04-30T17:06:38.642Z,17.26
2023-04-30T17:09:05.430Z,17.24
2023-04-30T17:11:34.605Z,17.24
2023-04-30T17:14:01.385Z,17.23
2023-04-30T17:16:28.132Z,17.23
2023-04-30T17:18:54.920Z,17.21
2023-04-30T17:21:22.068Z,17.21
2023-04-30T17:23:49.642Z,17.23
2023-04-30T17:26:16.332Z,17.23
2023-04-30T17:28:43.014Z,17.23
2023-04-30T17:31:09.758Z,17.21
2023-04-30T17:33:36.440Z,17.21
2023-04-30T17:36:03.122Z,17.23
2023-04-30T17:38:29.819Z,17.24
2023-04-30T17:40:56.469Z,17.23
2023-04-30T17:43:23.142Z,17.26
2023-04-30T17:45:49.836Z,17.23
2023-04-30T17:48:16.711Z,17.23
2023-04-30T17:50:43.347Z,17.18
2023-04-30T17:53:09.998Z,17.21
2023-04-30T17:55:36.638Z,17.17
2023-04-30T17:58:03.271Z,17.18
2023-04-30T18:00:29.948Z,17.18
2023-04-30T18:02:57.445Z,17.18
2023-04-30T18:05:24.300Z,17.14
2023-04-30T18:07:50.962Z,17.14
2023-04-30T18:10:17.687Z,17.16
2023-04-30T18:12:44.362Z,17.14
2023-04-30T18:15:11.044Z,17.14
2023-04-30T18:17:37.806Z,17.13
2023-04-30T18:20:04.512Z,17.13
2023-04-30T18:22:31.155Z,17.14
2023-04-30T18:24:57.841Z,17.13
2023-04-30T18:27:24.514Z,17.13
2023-04-30T18:29:51.176Z,16.97
2023-04-30T18:32:17.912Z,17.11
2023-04-30T18:34:44.593Z,17.07
2023-04-30T18:37:11.302Z,17.04
2023-04-30T18:39:37.942Z,17.06
2023-04-30T18:42:04.598Z,17.08
2023-04-30T18:44:31.488Z,17.08
2023-04-30T18:46:58.171Z,17.08
2023-04-30T18:49:24.814Z,17.06
2023-04-30T18:51:51.470Z,17.06
2023-04-30T18:54:18.125Z,17.04
2023-04-30T18:56:44.792Z,17.00
2023-04-30T18:59:11.453Z,17.04
2023-04-30T19:01:38.172Z,17.04
2023-04-30T19:04:04.864Z,17.04
2023-04-30T19:06:31.542Z,17.06
2023-04-30T19:08:58.200Z,17.00
2023-04-30T19:11:24.848Z,17.02
2023-04-30T19:13:51.480Z,17.02
2023-04-30T19:16:18.197Z,17.00
2023-04-30T19:18:44.859Z,16.99
2023-04-30T19:21:11.684Z,16.99
2023-04-30T19:23:38.339Z,17.00
2023-04-30T19:26:05.212Z,16.99
2023-04-30T19:28:31.875Z,16.99
2023-04-30T19:30:58.671Z,16.96
2023-04-30T19:33:25.393Z,16.97
2023-04-30T19:35:52.058Z,16.97
2023-04-30T19:38:18.738Z,16.96
2023-04-30T19:40:45.397Z,16.94
2023-04-30T19:43:12.073Z,16.94
2023-04-30T19:45:38.735Z,16.83
2023-04-30T19:48:05.459Z,16.79
2023-04-30T19:50:32.148Z,16.80
2023-04-30T19:52:58.797Z,16.84
2023-04-30T19:55:25.472Z,16.84
2023-04-30T19:57:52.137Z,16.87
2023-04-30T20:00:18.797Z,16.84
2023-04-30T20:02:45.566Z,16.87
2023-04-30T20:05:12.280Z,16.86
2023-04-30T20:07:39.162Z,16.84
2023-04-30T20:10:05.813Z,16.86
2023-04-30T20:12:32.466Z,16.83
2023-04-30T20:14:59.106Z,16.79
2023-04-30T20:17:25.776Z,16.83
2023-04-30T20:19:52.429Z,16.81
2023-04-30T20:22:19.070Z,16.84
2023-04-30T20:24:45.758Z,16.81
2023-04-30T20:27:12.425Z,16.81
2023-04-30T20:29:39.074Z,16.81
2023-04-30T20:32:05.786Z,16.80
2023-04-30T20:34:32.461Z,16.80
2023-04-30T20:36:59.095Z,16.81
2023-04-30T20:39:25.766Z,16.79
2023-04-30T20:41:52.433Z,16.79
2023-04-30T20:44:19.090Z,16.79
2023-04-30T20:46:45.823Z,16.77
2023-04-30T20:49:12.515Z,16.77
2023-04-30T20:51:39.164Z,16.77
2023-04-30T20:54:05.833Z,16.77
2023-04-30T20:56:32.489Z,16.79
2023-04-30T20:58:59.371Z,16.80
2023-04-30T21:01:26.033Z,16.79
2023-04-30T21:03:52.775Z,16.77
2023-04-30T21:06:19.495Z,16.75
2023-04-30T21:08:46.198Z,16.76
2023-04-30T21:11:13.068Z,16.73
2023-04-30T21:13:39.755Z,16.73
2023-04-30T21:16:06.469Z,16.75
2023-04-30T21:18:33.115Z,16.70
2023-04-30T21:20:59.760Z,16.69
2023-04-30T21:23:26.406Z,16.69
2023-04-30T21:25:53.078Z,16.69
2023-04-30T21:28:19.729Z,16.69
2023-04-30T21:30:46.617Z,16.67
2023-04-30T21:33:13.358Z,16.67
2023-04-30T21:35:40.241Z,16.66
2023-04-30T21:38:06.925Z,16.65
2023-04-30T21:40:33.838Z,16.65
2023-04-30T21:43:00.509Z,16.63
2023-04-30T21:45:27.153Z,16.62
2023-04-30T21:47:53.886Z,16.62
2023-04-30T21:50:20.551Z,16.62
2023-04-30T21:52:47.205Z,16.63
2023-04-30T21:55:13.875Z,16.60
2023-04-30T21:57:40.586Z,16.57
2023-04-30T22:00:07.254Z,16.57
2023-04-30T22:02:34.068Z,16.60
2023-04-30T22:05:00.769Z,16.57
2023-04-30T22:07:27.423Z,16.57
2023-04-30T22:09:54.268Z,16.56
2023-04-30T22:12:21.150Z,16.53
2023-04-30T22:14:47.799Z,16.53
2023-04-30T22:17:14.685Z,16.53
2023-04-30T22:19:41.351Z,16.55
2023-04-30T22:22:08.030Z,16.53
2023-04-30T22:24:34.697Z,16.52
2023-04-30T22:27:01.335Z,16.51
2023-04-30T22:29:27.981Z,16.51
2023-04-30T22:31:54.680Z,16.52
2023-04-30T22:34:21.399Z,16.51
2023-04-30T22:36:48.044Z,16.48
2023-04-30T22:39:14.693Z,16.49
2023-04-30T22:41:41.363Z,16.46
2023-04-30T22:44:08.011Z,16.46
2023-04-30T22:46:34.807Z,16.46
2023-04-30T22:49:01.527Z,16.46
2023-04-30T22:51:28.149Z,16.46
2023-04-30T22:53:54.862Z,16.45
2023-04-30T22:56:21.533Z,16.44
2023-04-30T22:58:48.409Z,16.44
2023-04-30T23:01:15.101Z,16.42
2023-04-30T23:03:41.991Z,16.42
2023-04-30T23:06:08.679Z,16.42
2023-04-30T23:08:35.580Z,16.41
2023-04-30T23:11:02.231Z,16.41
2023-04-30T23:13:29.105Z,16.41
2023-04-30T23:15:55.767Z,16.39
2023-04-30T23:18:22.637Z,16.36
2023-04-30T23:20:49.312Z,16.41
2023-04-30T23:23:15.979Z,16.38
2023-04-30T23:25:42.639Z,16.36
2023-04-30T23:28:09.394Z,16.38
2023-04-30T23:30:36.159Z,16.36
2023-04-30T23:33:02.826Z,16.36
2023-04-30T23:35:29.553Z,16.36
2023-04-30T23:37:56.214Z,16.35
2023-04-30T23:40:23.083Z,16.33
2023-04-30T23:42:49.760Z,16.33
2023-04-30T23:45:16.647Z,16.35
2023-04-30T23:47:43.321Z,16.33
2023-04-30T23:50:10.082Z,16.32
2023-04-30T23:52:36.760Z,16.30
2023-04-30T23:55:03.434Z,16.29
2023-04-30T23:57:30.087Z,16.29
2023-04-30T23:59:56.992Z,16.29
